createdAt,value
2023-03-04T00:00:33.264Z,61.77
2023-03-04T00:03:01.547Z,70.47
2023-03-04T00:05:31.266Z,61.10
2023-03-04T00:07:58.725Z,70.33
2023-03-04T00:10:26.596Z,74.90
2023-03-04T00:12:54.144Z,60.87
2023-03-04T00:15:24.216Z,53.10
2023-03-04T00:17:51.720Z,49.50
2023-03-04T00:20:19.201Z,55.10
2023-03-04T00:22:47.995Z,61.20
2023-03-04T00:25:16.147Z,55.93
2023-03-04T00:27:44.885Z,59.90
2023-03-04T00:30:12.707Z,64.80
2023-03-04T00:32:40.251Z,50.30
2023-03-04T00:35:08.528Z,47.07
2023-03-04T00:37:36.069Z,45.63
2023-03-04T00:40:04.264Z,162.53
2023-03-04T00:42:32.810Z,125.90
2023-03-04T00:45:00.259Z,152.00
2023-03-04T00:47:27.758Z,132.03
2023-03-04T00:49:55.280Z,85.13
2023-03-04T00:52:22.757Z,275.83
2023-03-04T00:54:50.262Z,198.93
2023-03-04T00:57:17.970Z,138.77
2023-03-04T00:59:46.387Z,195.33
2023-03-04T01:02:14.127Z,85.97
2023-03-04T01:04:41.950Z,136.93
2023-03-04T01:07:10.028Z,99.13
2023-03-04T01:09:37.531Z,80.20
2023-03-04T01:12:05.304Z,74.40
2023-03-04T01:14:32.858Z,156.43
2023-03-04T01:17:00.318Z,300.30
2023-03-04T01:19:27.899Z,288.60
2023-03-04T01:21:55.359Z,402.93
2023-03-04T01:24:22.908Z,205.57
2023-03-04T01:26:50.349Z,144.53
2023-03-04T01:29:17.792Z,207.57
2023-03-04T01:31:45.198Z,138.33
2023-03-04T01:34:13.449Z,157.70
2023-03-04T01:36:40.892Z,212.67
2023-03-04T01:39:08.396Z,148.30
2023-03-04T01:41:35.901Z,121.50
2023-03-04T01:44:03.965Z,100.57
2023-03-04T01:46:32.536Z,83.67
2023-03-04T01:49:00.883Z,67.83
2023-03-04T01:51:28.495Z,32.57
2023-03-04T01:53:56.182Z,34.27
2023-03-04T01:56:46.198Z,27.67
2023-03-04T01:59:23.679Z,26.57
2023-03-04T02:01:56.280Z,23.70
2023-03-04T02:04:31.817Z,22.40
2023-03-04T02:07:01.052Z,25.07
2023-03-04T02:09:30.936Z,24.73
2023-03-04T02:11:58.913Z,21.20
2023-03-04T02:14:27.730Z,25.53
2023-03-04T02:16:55.276Z,24.87
2023-03-04T02:19:39.935Z,23.13
2023-03-04T02:22:07.804Z,24.07
2023-03-04T02:24:50.511Z,32.07
2023-03-04T02:27:18.727Z,31.23
2023-03-04T02:29:47.522Z,30.73
2023-03-04T02:32:15.372Z,28.93
2023-03-04T02:34:52.205Z,35.80
2023-03-04T02:37:22.519Z,38.87
2023-03-04T02:39:53.554Z,29.00
2023-03-04T02:42:21.085Z,33.87
2023-03-04T02:44:50.536Z,31.80
2023-03-04T02:47:20.496Z,30.23
2023-03-04T02:49:49.804Z,36.57
2023-03-04T02:52:25.533Z,33.83
2023-03-04T02:54:53.195Z,42.67
2023-03-04T02:57:21.786Z,36.70
2023-03-04T02:59:53.624Z,36.60
2023-03-04T03:02:24.264Z,40.97
2023-03-04T03:04:52.017Z,38.50
2023-03-04T03:07:21.099Z,45.10
2023-03-04T03:09:52.209Z,41.37
2023-03-04T03:12:20.339Z,41.77
2023-03-04T03:14:47.848Z,169.00
2023-03-04T03:17:18.786Z,108.93
2023-03-04T03:19:47.835Z,107.87
2023-03-04T03:22:16.506Z,63.77
2023-03-04T03:24:44.176Z,47.47
2023-03-04T03:27:11.653Z,32.63
2023-03-04T03:29:39.407Z,31.90
2023-03-04T03:32:09.038Z,32.27
2023-03-04T03:34:36.572Z,33.80
2023-03-04T03:37:04.305Z,27.37
2023-03-04T03:39:31.812Z,32.37
2023-03-04T03:41:59.328Z,35.93
2023-03-04T03:44:26.827Z,37.37
2023-03-04T03:46:54.301Z,29.30
2023-03-04T03:49:21.783Z,31.97
2023-03-04T03:51:49.303Z,29.83
2023-03-04T03:54:16.736Z,25.47
2023-03-04T03:56:44.257Z,27.30
2023-03-04T03:59:11.712Z,28.30
2023-03-04T04:01:39.231Z,42.37
2023-03-04T04:04:06.711Z,39.57
2023-03-04T04:06:34.197Z,59.70
2023-03-04T04:09:01.633Z,39.37
2023-03-04T04:11:29.191Z,38.37
2023-03-04T04:13:56.687Z,36.33
2023-03-04T04:16:24.251Z,38.97
2023-03-04T04:18:51.763Z,30.63
2023-03-04T04:21:19.280Z,31.17
2023-03-04T04:23:46.774Z,30.87
2023-03-04T04:26:16.617Z,50.60
2023-03-04T04:28:44.199Z,59.10
2023-03-04T04:31:11.664Z,32.57
2023-03-04T04:33:39.291Z,60.30
2023-03-04T04:36:07.406Z,35.57
2023-03-04T04:38:34.978Z,28.03
2023-03-04T04:41:02.473Z,29.90
2023-03-04T04:43:29.988Z,87.40
2023-03-04T04:46:01.272Z,91.87
2023-03-04T04:48:28.714Z,43.30
2023-03-04T04:50:57.282Z,101.07
2023-03-04T04:53:24.808Z,66.97
2023-03-04T04:55:52.303Z,79.57
2023-03-04T04:58:19.821Z,114.57
2023-03-04T05:00:47.400Z,99.77
2023-03-04T05:03:18.581Z,86.30
2023-03-04T05:05:46.320Z,96.70
2023-03-04T05:08:13.825Z,61.57
2023-03-04T05:10:41.272Z,154.63
2023-03-04T05:13:08.751Z,145.23
2023-03-04T05:15:39.028Z,46.50
2023-03-04T05:18:06.917Z,100.87
2023-03-04T05:20:34.393Z,168.33
2023-03-04T05:23:01.922Z,171.43
2023-03-04T05:25:29.698Z,132.60
2023-03-04T05:27:57.198Z,96.00
2023-03-04T05:30:24.727Z,47.53
2023-03-04T05:32:52.174Z,50.10
2023-03-04T05:35:21.330Z,30.57
2023-03-04T05:37:48.872Z,23.93
2023-03-04T05:40:16.383Z,28.00
2023-03-04T05:42:43.950Z,42.57
2023-03-04T05:45:11.917Z,28.73
2023-03-04T05:47:39.517Z,30.00
2023-03-04T05:50:07.750Z,31.23
2023-03-04T05:52:35.352Z,33.53
2023-03-04T05:55:03.034Z,47.23
2023-03-04T05:57:32.424Z,49.10
2023-03-04T06:00:00.120Z,68.60
2023-03-04T06:02:27.672Z,99.70
2023-03-04T06:04:55.179Z,54.10
2023-03-04T06:07:22.751Z,49.57
2023-03-04T06:09:50.238Z,36.70
2023-03-04T06:12:17.718Z,33.43
2023-03-04T06:14:45.242Z,37.00
2023-03-04T06:17:12.857Z,43.60
2023-03-04T06:19:41.872Z,45.03
2023-03-04T06:22:11.084Z,47.07
2023-03-04T06:24:38.993Z,54.53
2023-03-04T06:27:07.023Z,45.87
2023-03-04T06:29:34.595Z,40.67
2023-03-04T06:32:02.749Z,41.70
2023-03-04T06:34:30.337Z,45.60
2023-03-04T06:36:57.795Z,49.43
2023-03-04T06:39:25.331Z,42.77
2023-03-04T06:41:54.260Z,44.80
2023-03-04T06:44:21.790Z,41.43
2023-03-04T06:46:49.365Z,44.47
2023-03-04T06:49:17.093Z,44.60
2023-03-04T06:51:44.623Z,42.20
2023-03-04T06:54:12.211Z,43.03
2023-03-04T06:56:39.836Z,47.07
2023-03-04T06:59:08.369Z,49.20
2023-03-04T07:01:36.795Z,60.57
2023-03-04T07:04:04.819Z,69.00
2023-03-04T07:06:33.105Z,51.70
2023-03-04T07:09:00.796Z,53.70
2023-03-04T07:11:28.870Z,52.30
2023-03-04T07:13:57.089Z,47.90
2023-03-04T07:16:27.423Z,52.20
2023-03-04T07:18:56.210Z,48.03
2023-03-04T07:21:23.746Z,65.10
2023-03-04T07:23:51.402Z,65.43
2023-03-04T07:26:19.004Z,58.67
2023-03-04T07:28:46.727Z,53.70
2023-03-04T07:31:23.264Z,67.27
2023-03-04T07:33:51.659Z,36.53
2023-03-04T07:36:20.036Z,40.30
2023-03-04T07:38:56.230Z,40.50
2023-03-04T07:41:31.100Z,34.27
2023-03-04T07:43:59.944Z,34.20
2023-03-04T07:46:27.494Z,31.83
2023-03-04T07:48:57.034Z,33.50
2023-03-04T07:51:27.064Z,29.47
2023-03-04T07:53:59.926Z,32.87
2023-03-04T07:56:31.364Z,29.93
2023-03-04T07:58:59.680Z,44.83
2023-03-04T08:01:35.813Z,26.07
2023-03-04T08:04:07.486Z,27.50
2023-03-04T08:09:17.835Z,30.63
2023-03-04T08:11:45.344Z,24.93
2023-03-04T08:14:13.956Z,28.03
2023-03-04T08:16:42.086Z,28.17
2023-03-04T08:19:10.766Z,36.73
2023-03-04T08:21:38.707Z,31.00
2023-03-04T08:24:09.317Z,37.00
2023-03-04T08:26:47.665Z,40.73
2023-03-04T08:29:21.256Z,43.13
2023-03-04T08:31:52.649Z,48.60
2023-03-04T08:34:24.564Z,56.63
2023-03-04T08:36:52.001Z,50.20
2023-03-04T08:39:20.093Z,46.60
2023-03-04T08:41:50.283Z,58.20
2023-03-04T08:44:18.105Z,38.13
2023-03-04T08:46:45.785Z,37.77
2023-03-04T08:49:15.653Z,37.70
2023-03-04T08:51:44.684Z,30.90
2023-03-04T08:54:12.266Z,24.50
2023-03-04T08:56:42.100Z,25.63
2023-03-04T08:59:09.638Z,27.13
2023-03-04T09:01:39.647Z,25.63
2023-03-04T09:04:08.607Z,23.87
2023-03-04T09:06:36.205Z,26.93
2023-03-04T09:09:05.349Z,36.67
2023-03-04T09:11:33.001Z,27.13
2023-03-04T09:14:01.022Z,29.93
2023-03-04T09:16:29.014Z,28.80
2023-03-04T09:18:57.137Z,25.27
2023-03-04T09:21:25.128Z,30.10
2023-03-04T09:23:52.618Z,29.43
2023-03-04T09:26:27.470Z,27.00
2023-03-04T09:28:59.582Z,31.43
2023-03-04T09:31:30.266Z,27.87
2023-03-04T09:33:59.932Z,29.33
2023-03-04T09:36:27.704Z,29.90
2023-03-04T09:38:55.164Z,40.40
2023-03-04T09:41:47.896Z,41.83
2023-03-04T09:44:27.352Z,43.57
2023-03-04T09:47:02.946Z,53.93
2023-03-04T09:49:32.988Z,48.33
2023-03-04T09:52:23.948Z,45.03
2023-03-04T09:55:18.808Z,42.33
2023-03-04T09:58:21.864Z,42.33
2023-03-04T10:01:11.845Z,42.33
2023-03-04T10:04:12.621Z,42.53
2023-03-04T10:06:42.529Z,33.80
2023-03-04T10:09:44.310Z,30.83
2023-03-04T10:12:22.176Z,31.63
2023-03-04T10:15:21.256Z,30.40
2023-03-04T10:17:55.654Z,24.47
2023-03-04T10:20:25.515Z,28.50
2023-03-04T10:23:18.934Z,21.27
2023-03-04T10:25:47.226Z,22.90
2023-03-04T10:28:46.431Z,19.27
2023-03-04T10:31:14.397Z,22.80
2023-03-04T10:33:46.577Z,25.43
2023-03-04T10:36:30.035Z,19.07
2023-03-04T10:39:10.198Z,17.17
2023-03-04T10:41:45.040Z,16.77
2023-03-04T10:44:22.539Z,19.27
2023-03-04T10:46:53.975Z,25.30
2023-03-04T10:49:24.949Z,25.57
2023-03-04T10:52:04.751Z,27.43
2023-03-04T10:54:53.021Z,27.87
2023-03-04T10:57:38.805Z,29.10
2023-03-04T11:00:32.146Z,33.50
2023-03-04T11:03:33.336Z,32.30
2023-03-04T11:06:21.462Z,31.70
2023-03-04T11:08:57.837Z,32.40
2023-03-04T11:11:34.778Z,33.90
2023-03-04T11:14:16.414Z,31.47
2023-03-04T11:16:59.622Z,31.07
2023-03-04T11:19:42.503Z,36.27
2023-03-04T11:22:16.058Z,37.97
2023-03-04T11:24:44.544Z,30.83
2023-03-04T11:27:48.133Z,29.13
2023-03-04T11:30:29.858Z,32.40
2023-03-04T11:33:09.995Z,25.80
2023-03-04T11:35:54.295Z,25.13
2023-03-04T11:38:33.127Z,24.27
2023-03-04T11:41:09.939Z,21.23
2023-03-04T11:43:42.128Z,21.60
2023-03-04T11:46:46.889Z,23.83
2023-03-04T11:49:44.171Z,21.30
2023-03-04T11:52:56.719Z,20.20
2023-03-04T11:56:18.752Z,19.77
2023-03-04T11:59:23.521Z,18.10
2023-03-04T12:02:39.680Z,28.60
2023-03-04T12:05:42.307Z,22.43
2023-03-04T12:08:27.844Z,20.90
2023-03-04T12:11:42.313Z,18.20
2023-03-04T12:14:35.628Z,21.53
2023-03-04T12:17:33.554Z,20.23
2023-03-04T12:20:42.009Z,20.40
2023-03-04T12:23:33.935Z,19.90
2023-03-04T12:26:53.411Z,20.83
2023-03-04T12:30:03.823Z,22.80
2023-03-04T12:32:40.212Z,22.07
2023-03-04T12:35:53.132Z,21.47
2023-03-04T12:39:00.435Z,26.40
2023-03-04T12:41:40.256Z,23.63
2023-03-04T12:44:19.566Z,29.70
2023-03-04T12:47:06.919Z,21.03
2023-03-04T12:50:14.551Z,31.90
2023-03-04T12:53:37.959Z,22.57
2023-03-04T12:56:24.033Z,22.10
2023-03-04T12:59:00.113Z,23.33
2023-03-04T13:02:24.813Z,27.63
2023-03-04T13:05:40.919Z,36.67
2023-03-04T13:09:06.267Z,25.63
2023-03-04T13:15:18.139Z,23.03
2023-03-04T13:17:49.208Z,24.53
2023-03-04T13:20:43.717Z,28.13
2023-03-04T13:23:14.604Z,22.13
2023-03-04T13:26:06.689Z,19.90
2023-03-04T13:28:36.805Z,21.10
2023-03-04T13:31:11.597Z,18.40
2023-03-04T13:33:39.065Z,21.47
2023-03-04T13:36:46.301Z,18.13
2023-03-04T13:39:16.714Z,17.07
2023-03-04T13:41:56.669Z,25.77
2023-03-04T13:44:48.321Z,21.30
2023-03-04T13:47:24.402Z,17.37
2023-03-04T13:50:25.750Z,31.20
2023-03-04T13:52:53.873Z,24.87
2023-03-04T13:55:42.586Z,15.60
2023-03-04T13:58:23.451Z,13.50
2023-03-04T14:00:55.240Z,13.20
2023-03-04T14:03:31.335Z,14.70
2023-03-04T14:06:27.174Z,21.20
2023-03-04T14:08:57.010Z,22.50
2023-03-04T14:11:36.392Z,18.60
2023-03-04T14:14:09.046Z,18.37
2023-03-04T14:16:52.246Z,15.70
2023-03-04T14:19:29.375Z,21.40
2023-03-04T14:21:58.493Z,19.87
2023-03-04T14:24:27.049Z,19.90
2023-03-04T14:27:20.997Z,18.57
2023-03-04T14:30:00.775Z,25.57
2023-03-04T14:32:30.668Z,19.73
2023-03-04T14:35:08.262Z,20.93
2023-03-04T14:38:16.840Z,26.40
2023-03-04T14:40:59.214Z,25.77
2023-03-04T14:43:29.265Z,24.33
2023-03-04T14:46:01.955Z,20.13
2023-03-04T14:48:36.394Z,25.10
2023-03-04T14:51:04.585Z,22.20
2023-03-04T14:53:35.153Z,26.77
2023-03-04T14:56:30.228Z,27.07
2023-03-04T14:58:59.780Z,20.10
2023-03-04T15:01:41.315Z,19.17
2023-03-04T15:04:14.124Z,25.03
2023-03-04T15:06:53.977Z,34.43
2023-03-04T15:09:27.142Z,21.63
2023-03-04T15:12:07.066Z,25.10
2023-03-04T15:14:46.914Z,21.47
2023-03-04T15:17:41.623Z,22.90
2023-03-04T15:20:10.217Z,25.50
2023-03-04T15:22:44.640Z,23.40
2023-03-04T15:25:20.366Z,34.17
2023-03-04T15:27:49.964Z,32.43
2023-03-04T15:30:35.712Z,35.00
2023-03-04T15:33:03.319Z,32.83
2023-03-04T15:35:33.495Z,26.13
2023-03-04T15:38:01.716Z,24.33
2023-03-04T15:40:39.172Z,25.60
2023-03-04T15:43:12.375Z,28.37
2023-03-04T15:45:40.703Z,27.53
2023-03-04T15:48:14.045Z,24.57
2023-03-04T15:50:57.200Z,27.27
2023-03-04T15:53:34.471Z,28.30
2023-03-04T15:56:05.861Z,112.87
2023-03-04T15:58:35.159Z,75.13
2023-03-04T16:01:08.768Z,46.07
2023-03-04T16:03:36.818Z,36.37
2023-03-04T16:06:16.175Z,33.93
2023-03-04T16:08:44.939Z,39.50
2023-03-04T16:11:22.571Z,45.33
2023-03-04T16:13:50.940Z,53.67
2023-03-04T16:16:21.189Z,76.57
2023-03-04T16:18:50.605Z,115.40
2023-03-04T16:21:25.702Z,112.87
2023-03-04T16:23:54.710Z,83.80
2023-03-04T16:26:24.949Z,63.87
2023-03-04T16:28:55.378Z,74.83
2023-03-04T16:31:45.253Z,68.93
2023-03-04T16:34:15.572Z,70.30
2023-03-04T16:36:43.711Z,62.43
2023-03-04T16:39:21.703Z,60.03
2023-03-04T16:41:50.593Z,65.50
2023-03-04T16:44:19.659Z,70.30
2023-03-04T16:46:49.894Z,89.73
2023-03-04T16:49:19.192Z,127.90
2023-03-04T16:51:51.785Z,122.10
2023-03-04T16:54:29.138Z,91.27
2023-03-04T16:56:59.302Z,95.07
2023-03-04T16:59:29.752Z,82.90
2023-03-04T17:01:59.216Z,55.50
2023-03-04T17:04:30.798Z,74.73
2023-03-04T17:06:58.549Z,75.13
2023-03-04T17:09:29.407Z,94.50
2023-03-04T17:12:00.071Z,111.60
2023-03-04T17:14:29.010Z,131.20
2023-03-04T17:16:56.589Z,177.10
2023-03-04T17:19:24.186Z,180.50
2023-03-04T17:21:54.355Z,251.57
2023-03-04T17:24:22.279Z,291.83
2023-03-04T17:26:50.723Z,328.37
2023-03-04T17:29:18.399Z,261.97
2023-03-04T17:31:50.332Z,263.97
2023-03-04T17:34:19.870Z,246.93
2023-03-04T17:36:50.529Z,215.60
2023-03-04T17:39:18.620Z,200.13
2023-03-04T17:41:51.775Z,155.13
2023-03-04T17:44:24.089Z,145.63
2023-03-04T17:46:52.321Z,157.17
2023-03-04T17:49:22.071Z,107.90
2023-03-04T17:52:11.398Z,125.97
2023-03-04T17:54:40.008Z,124.17
2023-03-04T17:57:27.756Z,121.33
2023-03-04T17:59:56.915Z,113.60
2023-03-04T18:02:25.989Z,156.83
2023-03-04T18:04:53.598Z,155.87
2023-03-04T18:07:22.721Z,129.47
2023-03-04T18:09:59.019Z,133.63
2023-03-04T18:12:27.349Z,142.50
2023-03-04T18:14:54.916Z,137.13
2023-03-04T18:17:22.500Z,104.50
2023-03-04T18:19:50.041Z,96.10
2023-03-04T18:22:17.884Z,73.63
2023-03-04T18:24:45.430Z,63.83
2023-03-04T18:27:13.380Z,63.47
2023-03-04T18:29:41.127Z,55.40
2023-03-04T18:32:08.749Z,57.57
2023-03-04T18:34:37.116Z,52.43
2023-03-04T18:37:06.007Z,57.93
2023-03-04T18:39:33.989Z,50.80
2023-03-04T18:42:04.529Z,38.43
2023-03-04T18:44:33.033Z,36.57
2023-03-04T18:47:00.638Z,40.80
2023-03-04T18:49:28.249Z,36.40
2023-03-04T18:51:55.723Z,36.70
2023-03-04T18:54:23.152Z,41.43
2023-03-04T18:57:03.752Z,40.67
2023-03-04T18:59:49.049Z,36.50
2023-03-04T19:02:27.174Z,44.17
2023-03-04T19:04:57.628Z,44.20
2023-03-04T19:07:46.527Z,49.63
2023-03-04T19:10:14.260Z,47.77
2023-03-04T19:12:44.264Z,51.77
2023-03-04T19:15:17.048Z,44.53
2023-03-04T19:17:46.188Z,40.27
2023-03-04T19:20:15.670Z,38.23
2023-03-04T19:22:44.316Z,41.63
2023-03-04T19:25:13.258Z,41.43
2023-03-04T19:27:40.977Z,40.10
2023-03-04T19:30:09.423Z,43.37
2023-03-04T19:32:37.555Z,39.17
2023-03-04T19:35:11.158Z,38.97
2023-03-04T19:37:39.684Z,36.23
2023-03-04T19:40:10.473Z,34.60
2023-03-04T19:42:41.073Z,32.93
2023-03-04T19:45:11.802Z,30.87
2023-03-04T19:47:43.303Z,33.70
2023-03-04T19:50:14.150Z,31.10
2023-03-04T19:52:43.427Z,37.03
2023-03-04T19:55:14.889Z,38.67
2023-03-04T19:57:42.708Z,39.10
2023-03-04T20:00:12.706Z,35.37
2023-03-04T20:02:43.869Z,34.93
2023-03-04T20:05:12.672Z,32.90
2023-03-04T20:07:44.712Z,42.93
2023-03-04T20:10:34.500Z,33.30
2023-03-04T20:13:03.829Z,33.40
2023-03-04T20:15:41.872Z,34.23
2023-03-04T20:18:10.784Z,34.43
2023-03-04T20:20:40.324Z,52.33
2023-03-04T20:23:13.445Z,41.23
2023-03-04T20:25:44.902Z,83.53
2023-03-04T20:28:15.576Z,78.40
2023-03-04T20:30:43.366Z,90.30
2023-03-04T20:33:14.255Z,66.57
2023-03-04T20:35:43.620Z,57.97
2023-03-04T20:38:11.502Z,67.70
2023-03-04T20:40:40.521Z,56.70
2023-03-04T20:43:08.265Z,80.47
2023-03-04T20:45:37.328Z,88.90
2023-03-04T20:48:05.209Z,151.03
2023-03-04T20:50:32.714Z,90.43
2023-03-04T20:53:00.665Z,78.20
2023-03-04T20:55:28.336Z,69.30
2023-03-04T20:57:55.861Z,66.03
2023-03-04T21:00:23.617Z,61.50
2023-03-04T21:02:51.124Z,53.23
2023-03-04T21:05:20.351Z,48.07
2023-03-04T21:07:48.708Z,51.43
2023-03-04T21:10:19.495Z,53.60
2023-03-04T21:12:48.593Z,52.97
2023-03-04T21:15:16.759Z,70.93
2023-03-04T21:17:44.439Z,52.97
2023-03-04T21:20:17.599Z,45.53
2023-03-04T21:22:45.120Z,91.37
2023-03-04T21:25:16.272Z,76.07
2023-03-04T21:27:44.911Z,107.30
2023-03-04T21:30:19.491Z,70.73
2023-03-04T21:32:59.121Z,145.80
2023-03-04T21:35:27.571Z,145.27
2023-03-04T21:38:02.247Z,74.27
2023-03-04T21:40:32.052Z,140.03
2023-03-04T21:43:00.110Z,42.50
2023-03-04T21:45:27.612Z,41.23
2023-03-04T21:47:55.067Z,34.33
2023-03-04T21:50:22.588Z,34.93
2023-03-04T21:52:50.055Z,29.27
2023-03-04T21:55:17.601Z,32.97
2023-03-04T21:57:45.305Z,31.33
2023-03-04T22:00:19.260Z,33.73
2023-03-04T22:02:46.762Z,40.83
2023-03-04T22:05:14.351Z,41.10
2023-03-04T22:07:42.181Z,41.67
2023-03-04T22:10:10.579Z,43.30
2023-03-04T22:12:38.157Z,36.80
2023-03-04T22:15:06.446Z,41.20
2023-03-04T22:17:35.129Z,39.13
2023-03-04T22:20:02.771Z,43.63
2023-03-04T22:22:31.060Z,43.20
2023-03-04T22:25:00.271Z,42.00
2023-03-04T22:27:27.956Z,37.90
2023-03-04T22:29:57.104Z,36.47
2023-03-04T22:32:24.592Z,36.93
2023-03-04T22:34:52.326Z,41.70
2023-03-04T22:37:19.776Z,42.70
2023-03-04T22:39:47.236Z,55.77
2023-03-04T22:42:14.739Z,57.43
2023-03-04T22:44:42.197Z,47.17
2023-03-04T22:47:15.212Z,42.03
2023-03-04T22:49:42.874Z,45.00
2023-03-04T22:52:10.408Z,42.33
2023-03-04T22:54:37.864Z,35.53
2023-03-04T22:57:05.374Z,43.23
2023-03-04T22:59:37.369Z,49.63
2023-03-04T23:02:05.260Z,46.83
2023-03-04T23:04:33.213Z,42.43
2023-03-04T23:07:00.733Z,35.80
2023-03-04T23:09:28.274Z,37.50
2023-03-04T23:11:55.810Z,37.93
2023-03-04T23:14:23.404Z,55.63
2023-03-04T23:16:51.042Z,38.17
2023-03-04T23:19:18.720Z,37.87
2023-03-04T23:21:46.565Z,34.73
2023-03-04T23:24:14.313Z,32.27
2023-03-04T23:26:44.334Z,31.20
2023-03-04T23:29:16.337Z,29.37
2023-03-04T23:31:44.646Z,32.80
2023-03-04T23:34:12.951Z,34.53
2023-03-04T23:36:41.341Z,39.67
2023-03-04T23:39:10.177Z,35.07
2023-03-04T23:41:38.662Z,34.30
2023-03-04T23:44:08.543Z,33.23
2023-03-04T23:46:39.263Z,35.70
2023-03-04T23:49:08.672Z,35.63
2023-03-04T23:51:37.018Z,34.00
2023-03-04T23:54:05.529Z,30.10
2023-03-04T23:56:33.256Z,36.87
2023-03-04T23:59:01.347Z,35.00
